sensor_id;sensor_type;location;lat;lon;timestamp;P1;durP1;ratioP1;P2;durP2;ratioP2
40669;SDS011;26355;45.528;9.234;2023-04-24T00:01:39;14.82;;;5.20;;
40669;SDS011;26355;45.528;9.234;2023-04-24T00:04:05;14.70;;;5.15;;
40669;SDS011;26355;45.528;9.234;2023-04-24T00:06:31;14.68;;;5.38;;
40669;SDS011;26355;45.528;9.234;2023-04-24T00:09:02;13.07;;;5.13;;
40669;SDS011;26355;45.528;9.234;2023-04-24T00:11:28;14.00;;;4.90;;
40669;SDS011;26355;45.528;9.234;2023-04-24T00:13:55;16.88;;;5.78;;
40669;SDS011;26355;45.528;9.234;2023-04-24T00:16:21;15.27;;;5.77;;
40669;SDS011;26355;45.528;9.234;2023-04-24T00:18:47;14.15;;;5.50;;
40669;SDS011;26355;45.528;9.234;2023-04-24T00:21:13;16.45;;;6.55;;
40669;SDS011;26355;45.528;9.234;2023-04-24T00:23:41;13.98;;;5.40;;
40669;SDS011;26355;45.528;9.234;2023-04-24T00:26:06;14.63;;;6.15;;
40669;SDS011;26355;45.528;9.234;2023-04-24T00:28:32;16.08;;;5.70;;
40669;SDS011;26355;45.528;9.234;2023-04-24T00:30:57;15.55;;;5.40;;
40669;SDS011;26355;45.528;9.234;2023-04-24T00:33:23;14.60;;;6.00;;
40669;SDS011;26355;45.528;9.234;2023-04-24T00:35:48;17.83;;;6.32;;
40669;SDS011;26355;45.528;9.234;2023-04-24T00:38:14;15.50;;;6.20;;
40669;SDS011;26355;45.528;9.234;2023-04-24T00:40:39;14.07;;;5.40;;
40669;SDS011;26355;45.528;9.234;2023-04-24T00:43:05;15.98;;;6.40;;
40669;SDS011;26355;45.528;9.234;2023-04-24T00:45:30;15.45;;;6.28;;
40669;SDS011;26355;45.528;9.234;2023-04-24T00:47:56;18.83;;;6.55;;
40669;SDS011;26355;45.528;9.234;2023-04-24T00:50:23;15.45;;;6.10;;
40669;SDS011;26355;45.528;9.234;2023-04-24T00:52:50;15.80;;;5.82;;
40669;SDS011;26355;45.528;9.234;2023-04-24T00:55:16;15.18;;;5.97;;
40669;SDS011;26355;45.528;9.234;2023-04-24T00:57:42;14.60;;;5.63;;
40669;SDS011;26355;45.528;9.234;2023-04-24T01:00:09;16.92;;;5.97;;
40669;SDS011;26355;45.528;9.234;2023-04-24T01:02:35;14.25;;;5.07;;
40669;SDS011;26355;45.528;9.234;2023-04-24T01:05:05;14.07;;;5.82;;
40669;SDS011;26355;45.528;9.234;2023-04-24T01:09:57;15.10;;;6.10;;
40669;SDS011;26355;45.528;9.234;2023-04-24T01:12:23;15.98;;;6.20;;
40669;SDS011;26355;45.528;9.234;2023-04-24T01:14:49;14.98;;;6.35;;
40669;SDS011;26355;45.528;9.234;2023-04-24T01:17:15;17.17;;;5.97;;
40669;SDS011;26355;45.528;9.234;2023-04-24T01:19:40;15.88;;;6.22;;
40669;SDS011;26355;45.528;9.234;2023-04-24T01:22:10;17.08;;;6.85;;
40669;SDS011;26355;45.528;9.234;2023-04-24T01:24:37;16.10;;;6.63;;
40669;SDS011;26355;45.528;9.234;2023-04-24T01:27:03;15.70;;;6.65;;
40669;SDS011;26355;45.528;9.234;2023-04-24T01:29:29;15.50;;;6.82;;
40669;SDS011;26355;45.528;9.234;2023-04-24T01:31:55;16.92;;;6.53;;
40669;SDS011;26355;45.528;9.234;2023-04-24T01:34:20;16.85;;;7.45;;
40669;SDS011;26355;45.528;9.234;2023-04-24T01:36:46;16.00;;;6.70;;
40669;SDS011;26355;45.528;9.234;2023-04-24T01:39:13;17.10;;;7.60;;
40669;SDS011;26355;45.528;9.234;2023-04-24T01:41:40;17.42;;;7.18;;
40669;SDS011;26355;45.528;9.234;2023-04-24T01:44:05;16.23;;;7.28;;
40669;SDS011;26355;45.528;9.234;2023-04-24T01:46:31;16.55;;;7.45;;
40669;SDS011;26355;45.528;9.234;2023-04-24T01:48:59;17.67;;;7.68;;
40669;SDS011;26355;45.528;9.234;2023-04-24T01:51:25;16.25;;;7.38;;
40669;SDS011;26355;45.528;9.234;2023-04-24T01:53:51;16.55;;;7.63;;
40669;SDS011;26355;45.528;9.234;2023-04-24T01:56:18;16.92;;;7.35;;
40669;SDS011;26355;45.528;9.234;2023-04-24T01:58:46;16.83;;;7.78;;
40669;SDS011;26355;45.528;9.234;2023-04-24T02:01:21;18.17;;;7.82;;
40669;SDS011;26355;45.528;9.234;2023-04-24T02:03:49;18.40;;;8.15;;
40669;SDS011;26355;45.528;9.234;2023-04-24T02:06:14;17.48;;;8.13;;
40669;SDS011;26355;45.528;9.234;2023-04-24T02:08:40;19.77;;;8.10;;
40669;SDS011;26355;45.528;9.234;2023-04-24T02:11:06;17.52;;;8.50;;
40669;SDS011;26355;45.528;9.234;2023-04-24T02:13:31;18.67;;;7.82;;
40669;SDS011;26355;45.528;9.234;2023-04-24T02:16:00;17.83;;;8.00;;
40669;SDS011;26355;45.528;9.234;2023-04-24T02:18:26;18.15;;;8.25;;
40669;SDS011;26355;45.528;9.234;2023-04-24T02:20:51;17.80;;;7.80;;
40669;SDS011;26355;45.528;9.234;2023-04-24T02:23:17;16.05;;;6.32;;
40669;SDS011;26355;45.528;9.234;2023-04-24T02:25:42;15.50;;;6.25;;
40669;SDS011;26355;45.528;9.234;2023-04-24T02:28:08;15.88;;;5.78;;
40669;SDS011;26355;45.528;9.234;2023-04-24T02:30:33;14.07;;;5.63;;
40669;SDS011;26355;45.528;9.234;2023-04-24T02:32:59;15.55;;;6.20;;
40669;SDS011;26355;45.528;9.234;2023-04-24T02:35:25;16.20;;;6.25;;
40669;SDS011;26355;45.528;9.234;2023-04-24T02:37:50;15.07;;;5.50;;
40669;SDS011;26355;45.528;9.234;2023-04-24T02:40:16;14.82;;;5.38;;
40669;SDS011;26355;45.528;9.234;2023-04-24T02:42:41;15.10;;;5.28;;
40669;SDS011;26355;45.528;9.234;2023-04-24T02:45:07;14.70;;;5.95;;
40669;SDS011;26355;45.528;9.234;2023-04-24T02:47:33;13.00;;;5.20;;
40669;SDS011;26355;45.528;9.234;2023-04-24T02:49:58;14.02;;;5.53;;
40669;SDS011;26355;45.528;9.234;2023-04-24T02:52:24;13.98;;;5.15;;
40669;SDS011;26355;45.528;9.234;2023-04-24T02:54:49;16.38;;;5.70;;
40669;SDS011;26355;45.528;9.234;2023-04-24T02:57:15;14.38;;;5.60;;
40669;SDS011;26355;45.528;9.234;2023-04-24T02:59:41;16.75;;;6.00;;
40669;SDS011;26355;45.528;9.234;2023-04-24T03:02:06;16.10;;;6.60;;
40669;SDS011;26355;45.528;9.234;2023-04-24T03:04:32;16.27;;;6.03;;
40669;SDS011;26355;45.528;9.234;2023-04-24T03:06:57;15.55;;;5.95;;
40669;SDS011;26355;45.528;9.234;2023-04-24T03:09:23;15.50;;;6.35;;
40669;SDS011;26355;45.528;9.234;2023-04-24T03:11:49;14.75;;;6.38;;
40669;SDS011;26355;45.528;9.234;2023-04-24T03:14:15;15.15;;;5.88;;
40669;SDS011;26355;45.528;9.234;2023-04-24T03:16:41;16.63;;;5.50;;
40669;SDS011;26355;45.528;9.234;2023-04-24T03:19:07;14.73;;;5.93;;
40669;SDS011;26355;45.528;9.234;2023-04-24T03:21:32;15.65;;;6.20;;
40669;SDS011;26355;45.528;9.234;2023-04-24T03:23:58;16.90;;;6.90;;
40669;SDS011;26355;45.528;9.234;2023-04-24T03:26:23;14.57;;;5.88;;
40669;SDS011;26355;45.528;9.234;2023-04-24T03:28:49;15.35;;;6.32;;
40669;SDS011;26355;45.528;9.234;2023-04-24T03:31:15;15.70;;;6.25;;
40669;SDS011;26355;45.528;9.234;2023-04-24T03:33:41;14.10;;;6.00;;
40669;SDS011;26355;45.528;9.234;2023-04-24T03:36:07;15.63;;;6.80;;
40669;SDS011;26355;45.528;9.234;2023-04-24T03:38:33;15.77;;;6.15;;
40669;SDS011;26355;45.528;9.234;2023-04-24T03:40:58;15.57;;;6.45;;
40669;SDS011;26355;45.528;9.234;2023-04-24T03:43:24;17.00;;;8.02;;
40669;SDS011;26355;45.528;9.234;2023-04-24T03:45:49;15.23;;;6.68;;
40669;SDS011;26355;45.528;9.234;2023-04-24T03:48:15;18.05;;;6.68;;
40669;SDS011;26355;45.528;9.234;2023-04-24T03:50:41;15.50;;;6.72;;
40669;SDS011;26355;45.528;9.234;2023-04-24T03:53:06;16.23;;;6.85;;
40669;SDS011;26355;45.528;9.234;2023-04-24T03:55:33;15.77;;;6.47;;
40669;SDS011;26355;45.528;9.234;2023-04-24T03:57:58;15.60;;;6.78;;
40669;SDS011;26355;45.528;9.234;2023-04-24T04:00:24;17.25;;;7.00;;
40669;SDS011;26355;45.528;9.234;2023-04-24T04:02:51;14.27;;;5.85;;
40669;SDS011;26355;45.528;9.234;2023-04-24T04:05:16;15.57;;;6.25;;
40669;SDS011;26355;45.528;9.234;2023-04-24T04:07:42;13.73;;;5.47;;
40669;SDS011;26355;45.528;9.234;2023-04-24T04:10:07;14.07;;;6.40;;
40669;SDS011;26355;45.528;9.234;2023-04-24T04:12:33;14.77;;;6.28;;
40669;SDS011;26355;45.528;9.234;2023-04-24T04:14:59;14.43;;;4.95;;
40669;SDS011;26355;45.528;9.234;2023-04-24T04:17:25;16.50;;;5.38;;
40669;SDS011;26355;45.528;9.234;2023-04-24T04:19:50;14.10;;;5.80;;
40669;SDS011;26355;45.528;9.234;2023-04-24T04:22:16;13.63;;;5.32;;
40669;SDS011;26355;45.528;9.234;2023-04-24T04:24:41;12.98;;;4.43;;
40669;SDS011;26355;45.528;9.234;2023-04-24T04:27:07;17.63;;;4.40;;
40669;SDS011;26355;45.528;9.234;2023-04-24T04:29:34;13.10;;;4.55;;
40669;SDS011;26355;45.528;9.234;2023-04-24T04:32:00;11.80;;;4.28;;
40669;SDS011;26355;45.528;9.234;2023-04-24T04:34:27;10.80;;;3.88;;
40669;SDS011;26355;45.528;9.234;2023-04-24T04:36:53;12.05;;;4.13;;
40669;SDS011;26355;45.528;9.234;2023-04-24T04:39:18;9.10;;;3.53;;
40669;SDS011;26355;45.528;9.234;2023-04-24T04:41:44;9.52;;;3.22;;
40669;SDS011;26355;45.528;9.234;2023-04-24T04:44:13;8.93;;;3.30;;
40669;SDS011;26355;45.528;9.234;2023-04-24T04:46:39;9.50;;;3.25;;
40669;SDS011;26355;45.528;9.234;2023-04-24T04:49:06;9.63;;;3.43;;
40669;SDS011;26355;45.528;9.234;2023-04-24T04:51:33;9.85;;;3.67;;
40669;SDS011;26355;45.528;9.234;2023-04-24T04:53:59;8.20;;;3.35;;
40669;SDS011;26355;45.528;9.234;2023-04-24T04:56:26;11.13;;;3.78;;
40669;SDS011;26355;45.528;9.234;2023-04-24T04:58:51;11.13;;;4.10;;
40669;SDS011;26355;45.528;9.234;2023-04-24T05:01:17;9.63;;;3.45;;
40669;SDS011;26355;45.528;9.234;2023-04-24T05:03:42;12.02;;;3.88;;
40669;SDS011;26355;45.528;9.234;2023-04-24T05:06:08;12.27;;;4.30;;
40669;SDS011;26355;45.528;9.234;2023-04-24T05:08:33;11.20;;;3.70;;
40669;SDS011;26355;45.528;9.234;2023-04-24T05:10:59;9.98;;;3.83;;
40669;SDS011;26355;45.528;9.234;2023-04-24T05:13:25;11.52;;;4.25;;
40669;SDS011;26355;45.528;9.234;2023-04-24T05:15:51;12.65;;;4.00;;
40669;SDS011;26355;45.528;9.234;2023-04-24T05:18:16;11.65;;;3.47;;
40669;SDS011;26355;45.528;9.234;2023-04-24T05:20:42;10.52;;;3.75;;
40669;SDS011;26355;45.528;9.234;2023-04-24T05:23:08;12.93;;;4.53;;
40669;SDS011;26355;45.528;9.234;2023-04-24T05:25:34;11.05;;;3.28;;
40669;SDS011;26355;45.528;9.234;2023-04-24T05:28:01;10.82;;;3.58;;
40669;SDS011;26355;45.528;9.234;2023-04-24T05:30:26;11.40;;;3.70;;
40669;SDS011;26355;45.528;9.234;2023-04-24T05:32:52;10.57;;;3.45;;
40669;SDS011;26355;45.528;9.234;2023-04-24T05:35:18;9.68;;;3.40;;
40669;SDS011;26355;45.528;9.234;2023-04-24T05:37:43;10.98;;;3.50;;
40669;SDS011;26355;45.528;9.234;2023-04-24T05:40:09;11.18;;;3.80;;
40669;SDS011;26355;45.528;9.234;2023-04-24T05:42:36;14.33;;;4.20;;
40669;SDS011;26355;45.528;9.234;2023-04-24T05:45:01;12.18;;;3.72;;
40669;SDS011;26355;45.528;9.234;2023-04-24T05:47:27;10.77;;;3.13;;
40669;SDS011;26355;45.528;9.234;2023-04-24T05:49:53;12.70;;;3.60;;
40669;SDS011;26355;45.528;9.234;2023-04-24T05:52:19;11.93;;;3.55;;
40669;SDS011;26355;45.528;9.234;2023-04-24T05:54:45;12.40;;;3.88;;
40669;SDS011;26355;45.528;9.234;2023-04-24T05:57:10;10.57;;;3.85;;
40669;SDS011;26355;45.528;9.234;2023-04-24T05:59:36;13.18;;;4.40;;
40669;SDS011;26355;45.528;9.234;2023-04-24T06:02:06;17.33;;;4.70;;
40669;SDS011;26355;45.528;9.234;2023-04-24T06:04:32;14.88;;;5.00;;
40669;SDS011;26355;45.528;9.234;2023-04-24T06:06:58;12.38;;;4.72;;
40669;SDS011;26355;45.528;9.234;2023-04-24T06:09:24;14.80;;;5.15;;
40669;SDS011;26355;45.528;9.234;2023-04-24T06:11:50;12.65;;;5.10;;
40669;SDS011;26355;45.528;9.234;2023-04-24T06:16:44;12.82;;;4.78;;
40669;SDS011;26355;45.528;9.234;2023-04-24T06:19:09;11.32;;;4.40;;
40669;SDS011;26355;45.528;9.234;2023-04-24T06:21:35;12.35;;;4.63;;
40669;SDS011;26355;45.528;9.234;2023-04-24T06:24:00;11.30;;;4.40;;
40669;SDS011;26355;45.528;9.234;2023-04-24T06:26:26;14.00;;;4.35;;
40669;SDS011;26355;45.528;9.234;2023-04-24T06:28:52;13.40;;;5.15;;
40669;SDS011;26355;45.528;9.234;2023-04-24T06:31:23;12.98;;;4.72;;
40669;SDS011;26355;45.528;9.234;2023-04-24T06:33:49;12.77;;;5.30;;
40669;SDS011;26355;45.528;9.234;2023-04-24T06:36:14;10.40;;;4.00;;
40669;SDS011;26355;45.528;9.234;2023-04-24T06:38:40;14.07;;;4.75;;
40669;SDS011;26355;45.528;9.234;2023-04-24T06:41:06;12.75;;;4.95;;
40669;SDS011;26355;45.528;9.234;2023-04-24T06:43:32;12.75;;;4.25;;
40669;SDS011;26355;45.528;9.234;2023-04-24T06:45:58;11.20;;;4.07;;
40669;SDS011;26355;45.528;9.234;2023-04-24T06:48:25;12.15;;;4.30;;
40669;SDS011;26355;45.528;9.234;2023-04-24T06:50:51;11.10;;;4.03;;
40669;SDS011;26355;45.528;9.234;2023-04-24T06:53:17;11.82;;;4.50;;
40669;SDS011;26355;45.528;9.234;2023-04-24T06:55:42;11.60;;;4.20;;
40669;SDS011;26355;45.528;9.234;2023-04-24T06:58:09;10.95;;;4.15;;
40669;SDS011;26355;45.528;9.234;2023-04-24T07:00:35;12.20;;;4.15;;
40669;SDS011;26355;45.528;9.234;2023-04-24T07:03:01;43.03;;;7.60;;
40669;SDS011;26355;45.528;9.234;2023-04-24T07:05:27;15.30;;;4.55;;
40669;SDS011;26355;45.528;9.234;2023-04-24T07:07:53;14.50;;;4.25;;
40669;SDS011;26355;45.528;9.234;2023-04-24T07:10:18;12.40;;;4.13;;
40669;SDS011;26355;45.528;9.234;2023-04-24T07:12:45;13.55;;;5.00;;
40669;SDS011;26355;45.528;9.234;2023-04-24T07:15:11;13.70;;;5.35;;
40669;SDS011;26355;45.528;9.234;2023-04-24T07:17:37;15.05;;;4.72;;
40669;SDS011;26355;45.528;9.234;2023-04-24T07:20:03;12.35;;;4.53;;
40669;SDS011;26355;45.528;9.234;2023-04-24T07:22:30;12.90;;;4.38;;
40669;SDS011;26355;45.528;9.234;2023-04-24T07:24:56;10.95;;;3.95;;
40669;SDS011;26355;45.528;9.234;2023-04-24T07:27:21;12.35;;;4.25;;
40669;SDS011;26355;45.528;9.234;2023-04-24T07:29:47;11.43;;;4.22;;
40669;SDS011;26355;45.528;9.234;2023-04-24T07:32:13;10.98;;;3.55;;
40669;SDS011;26355;45.528;9.234;2023-04-24T07:34:38;10.35;;;3.80;;
40669;SDS011;26355;45.528;9.234;2023-04-24T07:37:04;10.55;;;3.90;;
40669;SDS011;26355;45.528;9.234;2023-04-24T07:39:30;9.73;;;3.55;;
40669;SDS011;26355;45.528;9.234;2023-04-24T07:41:56;13.55;;;4.47;;
40669;SDS011;26355;45.528;9.234;2023-04-24T07:44:24;8.70;;;3.55;;
40669;SDS011;26355;45.528;9.234;2023-04-24T07:46:49;11.63;;;3.92;;
40669;SDS011;26355;45.528;9.234;2023-04-24T07:49:15;10.82;;;3.80;;
40669;SDS011;26355;45.528;9.234;2023-04-24T07:51:41;10.68;;;3.85;;
40669;SDS011;26355;45.528;9.234;2023-04-24T07:54:06;13.23;;;4.68;;
40669;SDS011;26355;45.528;9.234;2023-04-24T07:56:32;12.75;;;4.93;;
40669;SDS011;26355;45.528;9.234;2023-04-24T07:58:58;12.20;;;4.55;;
40669;SDS011;26355;45.528;9.234;2023-04-24T08:01:24;11.87;;;4.20;;
40669;SDS011;26355;45.528;9.234;2023-04-24T08:03:50;12.13;;;4.03;;
40669;SDS011;26355;45.528;9.234;2023-04-24T08:06:16;13.32;;;4.35;;
40669;SDS011;26355;45.528;9.234;2023-04-24T08:08:42;14.77;;;4.22;;
40669;SDS011;26355;45.528;9.234;2023-04-24T08:11:08;13.75;;;4.38;;
40669;SDS011;26355;45.528;9.234;2023-04-24T08:13:33;11.10;;;3.88;;
40669;SDS011;26355;45.528;9.234;2023-04-24T08:15:59;10.60;;;3.50;;
40669;SDS011;26355;45.528;9.234;2023-04-24T08:18:24;7.72;;;3.00;;
40669;SDS011;26355;45.528;9.234;2023-04-24T08:20:51;6.18;;;2.28;;
40669;SDS011;26355;45.528;9.234;2023-04-24T08:23:16;4.05;;;1.58;;
40669;SDS011;26355;45.528;9.234;2023-04-24T08:25:42;5.60;;;1.73;;
40669;SDS011;26355;45.528;9.234;2023-04-24T08:28:08;4.93;;;1.85;;
40669;SDS011;26355;45.528;9.234;2023-04-24T08:30:34;8.27;;;2.05;;
40669;SDS011;26355;45.528;9.234;2023-04-24T08:33:00;7.88;;;2.40;;
40669;SDS011;26355;45.528;9.234;2023-04-24T08:35:25;7.38;;;2.53;;
40669;SDS011;26355;45.528;9.234;2023-04-24T08:37:52;6.32;;;2.33;;
40669;SDS011;26355;45.528;9.234;2023-04-24T08:40:18;7.35;;;2.50;;
40669;SDS011;26355;45.528;9.234;2023-04-24T08:42:51;6.50;;;2.40;;
40669;SDS011;26355;45.528;9.234;2023-04-24T08:45:19;7.10;;;2.50;;
40669;SDS011;26355;45.528;9.234;2023-04-24T08:47:45;8.52;;;2.58;;
40669;SDS011;26355;45.528;9.234;2023-04-24T08:50:11;5.72;;;2.00;;
40669;SDS011;26355;45.528;9.234;2023-04-24T08:52:37;8.88;;;2.60;;
40669;SDS011;26355;45.528;9.234;2023-04-24T08:55:03;7.75;;;2.30;;
40669;SDS011;26355;45.528;9.234;2023-04-24T08:57:30;8.10;;;2.22;;
40669;SDS011;26355;45.528;9.234;2023-04-24T08:59:57;6.28;;;2.85;;
40669;SDS011;26355;45.528;9.234;2023-04-24T09:02:23;5.70;;;1.80;;
40669;SDS011;26355;45.528;9.234;2023-04-24T09:07:17;6.43;;;2.10;;
40669;SDS011;26355;45.528;9.234;2023-04-24T09:09:44;4.38;;;2.10;;
40669;SDS011;26355;45.528;9.234;2023-04-24T09:12:10;8.20;;;2.05;;
40669;SDS011;26355;45.528;9.234;2023-04-24T09:14:36;4.65;;;2.00;;
40669;SDS011;26355;45.528;9.234;2023-04-24T09:17:09;9.13;;;2.10;;
40669;SDS011;26355;45.528;9.234;2023-04-24T09:19:36;7.35;;;2.00;;
40669;SDS011;26355;45.528;9.234;2023-04-24T09:22:04;3.65;;;1.50;;
40669;SDS011;26355;45.528;9.234;2023-04-24T09:24:31;6.28;;;1.77;;
40669;SDS011;26355;45.528;9.234;2023-04-24T09:26:57;6.95;;;2.00;;
40669;SDS011;26355;45.528;9.234;2023-04-24T09:29:24;6.33;;;2.00;;
40669;SDS011;26355;45.528;9.234;2023-04-24T09:31:50;5.97;;;1.80;;
40669;SDS011;26355;45.528;9.234;2023-04-24T09:34:20;4.80;;;2.05;;
40669;SDS011;26355;45.528;9.234;2023-04-24T09:39:32;4.53;;;1.90;;
40669;SDS011;26355;45.528;9.234;2023-04-24T09:41:57;5.43;;;1.95;;
40669;SDS011;26355;45.528;9.234;2023-04-24T09:44:27;7.85;;;2.33;;
40669;SDS011;26355;45.528;9.234;2023-04-24T09:46:54;5.93;;;2.37;;
40669;SDS011;26355;45.528;9.234;2023-04-24T09:49:22;7.25;;;2.15;;
40669;SDS011;26355;45.528;9.234;2023-04-24T09:51:48;5.18;;;1.80;;
40669;SDS011;26355;45.528;9.234;2023-04-24T09:54:17;5.70;;;2.00;;
40669;SDS011;26355;45.528;9.234;2023-04-24T09:56:46;8.43;;;2.35;;
40669;SDS011;26355;45.528;9.234;2023-04-24T09:59:13;10.00;;;2.30;;
40669;SDS011;26355;45.528;9.234;2023-04-24T10:01:40;6.40;;;2.25;;
40669;SDS011;26355;45.528;9.234;2023-04-24T10:04:20;6.32;;;2.53;;
40669;SDS011;26355;45.528;9.234;2023-04-24T10:06:48;6.88;;;2.22;;
40669;SDS011;26355;45.528;9.234;2023-04-24T10:09:15;7.57;;;2.47;;
40669;SDS011;26355;45.528;9.234;2023-04-24T10:11:46;8.18;;;2.08;;
40669;SDS011;26355;45.528;9.234;2023-04-24T10:14:14;7.03;;;2.22;;
40669;SDS011;26355;45.528;9.234;2023-04-24T10:16:45;9.07;;;2.45;;
40669;SDS011;26355;45.528;9.234;2023-04-24T10:19:12;7.17;;;2.40;;
40669;SDS011;26355;45.528;9.234;2023-04-24T10:21:43;6.95;;;2.40;;
40669;SDS011;26355;45.528;9.234;2023-04-24T10:24:13;6.47;;;2.05;;
40669;SDS011;26355;45.528;9.234;2023-04-24T10:26:40;7.22;;;2.30;;
40669;SDS011;26355;45.528;9.234;2023-04-24T10:29:06;8.00;;;2.40;;
40669;SDS011;26355;45.528;9.234;2023-04-24T10:31:34;6.75;;;2.50;;
40669;SDS011;26355;45.528;9.234;2023-04-24T10:34:01;7.22;;;2.20;;
40669;SDS011;26355;45.528;9.234;2023-04-24T10:36:28;6.82;;;2.65;;
40669;SDS011;26355;45.528;9.234;2023-04-24T10:38:57;4.10;;;1.60;;
40669;SDS011;26355;45.528;9.234;2023-04-24T10:41:26;2.53;;;1.30;;
40669;SDS011;26355;45.528;9.234;2023-04-24T10:46:31;3.80;;;1.60;;
40669;SDS011;26355;45.528;9.234;2023-04-24T10:48:56;6.05;;;1.80;;
40669;SDS011;26355;45.528;9.234;2023-04-24T10:51:23;8.27;;;1.77;;
40669;SDS011;26355;45.528;9.234;2023-04-24T10:53:50;4.90;;;1.75;;
40669;SDS011;26355;45.528;9.234;2023-04-24T10:56:16;6.35;;;1.58;;
40669;SDS011;26355;45.528;9.234;2023-04-24T10:58:43;5.72;;;1.42;;
40669;SDS011;26355;45.528;9.234;2023-04-24T11:01:27;2.88;;;1.25;;
40669;SDS011;26355;45.528;9.234;2023-04-24T11:03:55;3.00;;;1.10;;
40669;SDS011;26355;45.528;9.234;2023-04-24T11:06:29;3.30;;;1.13;;
40669;SDS011;26355;45.528;9.234;2023-04-24T11:09:09;4.68;;;1.30;;
40669;SDS011;26355;45.528;9.234;2023-04-24T11:11:38;3.00;;;1.00;;
40669;SDS011;26355;45.528;9.234;2023-04-24T11:14:09;1.40;;;0.90;;
40669;SDS011;26355;45.528;9.234;2023-04-24T11:26:56;1.80;;;1.30;;
40669;SDS011;26355;45.528;9.234;2023-04-24T11:29:39;3.88;;;1.27;;
40669;SDS011;26355;45.528;9.234;2023-04-24T11:32:16;2.60;;;1.05;;
40669;SDS011;26355;45.528;9.234;2023-04-24T11:34:52;2.17;;;1.33;;
40669;SDS011;26355;45.528;9.234;2023-04-24T11:37:22;3.15;;;1.17;;
40669;SDS011;26355;45.528;9.234;2023-04-24T11:39:58;3.63;;;1.15;;
40669;SDS011;26355;45.528;9.234;2023-04-24T11:42:24;3.35;;;1.23;;
40669;SDS011;26355;45.528;9.234;2023-04-24T11:44:53;2.85;;;1.08;;
40669;SDS011;26355;45.528;9.234;2023-04-24T11:47:31;1.40;;;0.98;;
40669;SDS011;26355;45.528;9.234;2023-04-24T11:49:58;4.32;;;1.15;;
40669;SDS011;26355;45.528;9.234;2023-04-24T11:52:25;4.63;;;1.10;;
40669;SDS011;26355;45.528;9.234;2023-04-24T11:54:51;3.30;;;1.10;;
40669;SDS011;26355;45.528;9.234;2023-04-24T11:57:18;1.98;;;0.80;;
40669;SDS011;26355;45.528;9.234;2023-04-24T11:59:45;2.83;;;1.10;;
40669;SDS011;26355;45.528;9.234;2023-04-24T12:02:24;2.47;;;1.10;;
40669;SDS011;26355;45.528;9.234;2023-04-24T12:04:51;4.15;;;1.25;;
40669;SDS011;26355;45.528;9.234;2023-04-24T12:07:17;5.32;;;1.42;;
40669;SDS011;26355;45.528;9.234;2023-04-24T12:12:10;4.03;;;1.30;;
40669;SDS011;26355;45.528;9.234;2023-04-24T12:14:44;3.25;;;1.25;;
40669;SDS011;26355;45.528;9.234;2023-04-24T12:17:17;4.28;;;1.40;;
40669;SDS011;26355;45.528;9.234;2023-04-24T12:19:46;2.75;;;1.00;;
40669;SDS011;26355;45.528;9.234;2023-04-24T12:22:12;3.28;;;1.10;;
40669;SDS011;26355;45.528;9.234;2023-04-24T12:27:43;2.15;;;0.98;;
40669;SDS011;26355;45.528;9.234;2023-04-24T12:30:11;2.05;;;0.98;;
40669;SDS011;26355;45.528;9.234;2023-04-24T12:32:46;2.80;;;0.90;;
40669;SDS011;26355;45.528;9.234;2023-04-24T12:35:13;3.35;;;0.93;;
40669;SDS011;26355;45.528;9.234;2023-04-24T12:37:46;1.27;;;0.85;;
40669;SDS011;26355;45.528;9.234;2023-04-24T12:40:12;4.97;;;1.30;;
40669;SDS011;26355;45.528;9.234;2023-04-24T12:42:56;3.67;;;1.07;;
40669;SDS011;26355;45.528;9.234;2023-04-24T12:45:21;2.65;;;0.85;;
40669;SDS011;26355;45.528;9.234;2023-04-24T12:47:49;2.47;;;0.90;;
40669;SDS011;26355;45.528;9.234;2023-04-24T12:50:15;1.85;;;0.68;;
40669;SDS011;26355;45.528;9.234;2023-04-24T12:52:41;3.40;;;0.73;;
40669;SDS011;26355;45.528;9.234;2023-04-24T12:55:07;2.25;;;0.88;;
40669;SDS011;26355;45.528;9.234;2023-04-24T12:57:34;3.53;;;1.10;;
40669;SDS011;26355;45.528;9.234;2023-04-24T13:00:00;3.58;;;0.82;;
40669;SDS011;26355;45.528;9.234;2023-04-24T13:02:27;2.75;;;0.80;;
40669;SDS011;26355;45.528;9.234;2023-04-24T13:04:57;1.98;;;0.90;;
40669;SDS011;26355;45.528;9.234;2023-04-24T13:07:23;2.25;;;0.90;;
40669;SDS011;26355;45.528;9.234;2023-04-24T13:09:50;1.02;;;0.80;;
40669;SDS011;26355;45.528;9.234;2023-04-24T13:12:16;2.75;;;0.88;;
40669;SDS011;26355;45.528;9.234;2023-04-24T13:14:42;2.42;;;0.73;;
40669;SDS011;26355;45.528;9.234;2023-04-24T13:17:08;5.20;;;0.70;;
40669;SDS011;26355;45.528;9.234;2023-04-24T13:19:37;3.38;;;0.73;;
40669;SDS011;26355;45.528;9.234;2023-04-24T13:22:06;1.45;;;0.90;;
40669;SDS011;26355;45.528;9.234;2023-04-24T13:26:59;2.95;;;0.93;;
40669;SDS011;26355;45.528;9.234;2023-04-24T13:29:25;0.67;;;0.60;;
40669;SDS011;26355;45.528;9.234;2023-04-24T13:31:52;4.40;;;0.98;;
40669;SDS011;26355;45.528;9.234;2023-04-24T13:34:22;1.40;;;0.80;;
40669;SDS011;26355;45.528;9.234;2023-04-24T13:36:49;2.83;;;0.80;;
40669;SDS011;26355;45.528;9.234;2023-04-24T13:39:16;2.47;;;1.05;;
40669;SDS011;26355;45.528;9.234;2023-04-24T13:41:42;3.28;;;0.90;;
40669;SDS011;26355;45.528;9.234;2023-04-24T13:44:07;1.58;;;0.50;;
40669;SDS011;26355;45.528;9.234;2023-04-24T13:46:33;0.80;;;0.32;;
40669;SDS011;26355;45.528;9.234;2023-04-24T13:48:59;1.92;;;0.68;;
40669;SDS011;26355;45.528;9.234;2023-04-24T13:51:25;1.23;;;0.50;;
40669;SDS011;26355;45.528;9.234;2023-04-24T13:53:54;2.63;;;0.70;;
40669;SDS011;26355;45.528;9.234;2023-04-24T13:56:20;1.20;;;0.68;;
40669;SDS011;26355;45.528;9.234;2023-04-24T13:58:46;2.45;;;0.57;;
40669;SDS011;26355;45.528;9.234;2023-04-24T14:01:12;1.42;;;0.65;;
40669;SDS011;26355;45.528;9.234;2023-04-24T14:03:38;1.40;;;0.57;;
40669;SDS011;26355;45.528;9.234;2023-04-24T14:06:03;2.13;;;0.60;;
40669;SDS011;26355;45.528;9.234;2023-04-24T14:08:29;1.67;;;0.40;;
40669;SDS011;26355;45.528;9.234;2023-04-24T14:10:55;2.15;;;0.52;;
40669;SDS011;26355;45.528;9.234;2023-04-24T14:13:20;0.40;;;0.40;;
40669;SDS011;26355;45.528;9.234;2023-04-24T14:15:46;3.03;;;0.45;;
40669;SDS011;26355;45.528;9.234;2023-04-24T14:18:12;0.63;;;0.40;;
40669;SDS011;26355;45.528;9.234;2023-04-24T14:20:37;1.25;;;0.50;;
40669;SDS011;26355;45.528;9.234;2023-04-24T14:23:03;1.02;;;0.50;;
40669;SDS011;26355;45.528;9.234;2023-04-24T14:25:29;5.72;;;1.35;;
40669;SDS011;26355;45.528;9.234;2023-04-24T14:27:55;2.58;;;0.88;;
40669;SDS011;26355;45.528;9.234;2023-04-24T14:30:21;0.68;;;0.45;;
40669;SDS011;26355;45.528;9.234;2023-04-24T14:32:47;0.93;;;0.40;;
40669;SDS011;26355;45.528;9.234;2023-04-24T14:35:13;1.27;;;0.60;;
40669;SDS011;26355;45.528;9.234;2023-04-24T14:37:39;1.60;;;0.60;;
40669;SDS011;26355;45.528;9.234;2023-04-24T14:40:08;0.40;;;0.40;;
40669;SDS011;26355;45.528;9.234;2023-04-24T14:42:34;1.40;;;0.55;;
40669;SDS011;26355;45.528;9.234;2023-04-24T14:45:00;1.63;;;0.60;;
40669;SDS011;26355;45.528;9.234;2023-04-24T14:47:26;3.20;;;0.73;;
40669;SDS011;26355;45.528;9.234;2023-04-24T14:49:52;0.60;;;0.47;;
40669;SDS011;26355;45.528;9.234;2023-04-24T14:52:18;0.82;;;0.50;;
40669;SDS011;26355;45.528;9.234;2023-04-24T14:54:43;2.53;;;0.40;;
40669;SDS011;26355;45.528;9.234;2023-04-24T14:57:09;1.45;;;0.40;;
40669;SDS011;26355;45.528;9.234;2023-04-24T14:59:35;1.35;;;0.60;;
40669;SDS011;26355;45.528;9.234;2023-04-24T15:02:00;0.93;;;0.70;;
40669;SDS011;26355;45.528;9.234;2023-04-24T15:04:27;0.60;;;0.47;;
40669;SDS011;26355;45.528;9.234;2023-04-24T15:06:53;1.60;;;0.60;;
40669;SDS011;26355;45.528;9.234;2023-04-24T15:09:20;1.50;;;0.63;;